Time;durP1;ratioP1;P1;durP2;ratioP2;P2;SDS_P1;SDS_P2;PMS_P1;PMS_P2;Temp;Humidity;BMP_temperature;BMP_pressure;BME280_temperature;BME280_humidity;BME280_pressure;Samples;Min_cycle;Max_cycle;Signal;HPM_P1;HPM_P2
2021/12/02 00:02:19;;;;;;;0.60;0.60;;;17.10;29.80;;;;;;5119145;28;20203;-72
2021/12/02 00:04:46;;;;;;;1.95;0.70;;;17.10;29.80;;;;;;5118999;28;20704;-72
2021/12/02 00:07:13;;;;;;;0.60;0.52;;;17.10;29.90;;;;;;5118249;28;20206;-72
2021/12/02 00:09:42;;;;;;;0.68;0.68;;;17.10;29.90;;;;;;5119166;28;20203;-72
2021/12/02 00:12:10;;;;;;;0.50;0.50;;;17.10;29.90;;;;;;5118974;28;20215;-73
2021/12/02 00:14:43;;;;;;;0.65;0.65;;;17.10;29.90;;;;;;5117511;28;20202;-72
2021/12/02 00:17:14;;;;;;;0.80;0.60;;;17.10;29.90;;;;;;5118830;28;20602;-72
2021/12/02 00:22:29;;;;;;;0.90;0.50;;;17.10;29.80;;;;;;5118062;28;20202;-73
2021/12/02 00:25:01;;;;;;;0.88;0.60;;;17.10;29.90;;;;;;5118125;28;20203;-72
2021/12/02 00:27:29;;;;;;;0.80;0.77;;;17.10;29.80;;;;;;5118585;28;20226;-72
2021/12/02 00:29:58;;;;;;;1.38;0.73;;;17.10;29.80;;;;;;5118747;28;20203;-72
2021/12/02 00:32:28;;;;;;;0.85;0.65;;;17.00;29.80;;;;;;5118534;28;20501;-72
2021/12/02 00:34:57;;;;;;;1.38;0.55;;;17.00;29.80;;;;;;5118118;28;20593;-72
2021/12/02 00:37:26;;;;;;;1.02;0.60;;;17.00;29.90;;;;;;5116434;28;20291;-72
2021/12/02 00:39:54;;;;;;;0.90;0.63;;;17.00;29.90;;;;;;5115397;28;20211;-73
2021/12/02 00:42:23;;;;;;;1.58;0.60;;;17.00;29.80;;;;;;5116181;28;20210;-72
2021/12/02 00:44:51;;;;;;;1.02;0.70;;;17.00;29.80;;;;;;5118444;28;20206;-72
2021/12/02 00:47:19;;;;;;;0.60;0.60;;;17.00;29.80;;;;;;5118001;28;20194;-73
2021/12/02 00:49:48;;;;;;;0.60;0.60;;;17.00;29.80;;;;;;5118195;28;20233;-72
2021/12/02 00:52:16;;;;;;;0.55;0.50;;;17.00;29.70;;;;;;5116962;28;20790;-71
2021/12/02 00:54:45;;;;;;;0.55;0.50;;;17.00;29.70;;;;;;5118400;28;20219;-72
2021/12/02 00:57:14;;;;;;;1.08;0.47;;;17.00;29.80;;;;;;5120720;28;20227;-72
2021/12/02 00:59:43;;;;;;;1.17;0.73;;;17.00;29.60;;;;;;5138791;27;20202;-72
2021/12/02 01:02:11;;;;;;;0.50;0.50;;;17.00;29.60;;;;;;5138151;27;20194;-72
2021/12/02 01:04:39;;;;;;;0.52;0.50;;;16.90;29.50;;;;;;5137991;27;20537;-72
2021/12/02 01:10:28;;;;;;;0.70;0.50;;;16.90;29.40;;;;;;5117396;28;20243;-72
2021/12/02 01:12:57;;;;;;;0.73;0.40;;;16.90;29.40;;;;;;5117681;28;20211;-73
2021/12/02 01:15:26;;;;;;;0.55;0.50;;;16.90;29.30;;;;;;5117346;28;20209;-72
2021/12/02 01:17:54;;;;;;;0.60;0.50;;;16.90;29.90;;;;;;5117556;28;20221;-72
2021/12/02 01:20:21;;;;;;;0.35;0.30;;;16.90;29.30;;;;;;5117560;28;20203;-72
2021/12/02 01:22:50;;;;;;;0.35;0.35;;;16.80;29.20;;;;;;5117537;28;20218;-72
2021/12/02 01:25:19;;;;;;;1.30;0.30;;;16.80;29.30;;;;;;5118058;28;20228;-72
2021/12/02 01:27:49;;;;;;;0.30;0.30;;;16.80;29.20;;;;;;5117652;28;20263;-72
2021/12/02 01:30:16;;;;;;;0.30;0.30;;;16.80;29.30;;;;;;5117304;28;20211;-72
2021/12/02 01:32:48;;;;;;;0.40;0.40;;;16.80;29.20;;;;;;5116993;28;20268;-72
2021/12/02 01:35:19;;;;;;;0.40;0.38;;;16.80;29.20;;;;;;5116973;28;20202;-72
2021/12/02 01:37:47;;;;;;;0.55;0.40;;;16.70;29.10;;;;;;5136448;28;20222;-72
2021/12/02 01:40:14;;;;;;;0.43;0.40;;;16.70;29.20;;;;;;5137774;28;20210;-72
2021/12/02 01:42:41;;;;;;;1.15;0.40;;;16.70;29.20;;;;;;5137780;28;20202;-72
2021/12/02 01:45:14;;;;;;;0.30;0.30;;;16.70;29.10;;;;;;5137946;28;20202;-72
2021/12/02 01:47:47;;;;;;;1.38;0.45;;;16.70;29.20;;;;;;5137750;27;20210;-72
2021/12/02 01:50:17;;;;;;;0.60;0.32;;;16.70;29.10;;;;;;5140825;27;20213;-71
2021/12/02 01:52:45;;;;;;;0.40;0.30;;;16.70;29.10;;;;;;5141207;27;20561;-72
2021/12/02 01:55:16;;;;;;;0.32;0.32;;;16.70;29.10;;;;;;5141267;27;20210;-72
2021/12/02 01:57:48;;;;;;;0.75;0.40;;;16.70;29.00;;;;;;5141993;27;20272;-72
2021/12/02 02:00:19;;;;;;;0.68;0.50;;;16.60;29.10;;;;;;5141657;27;20306;-72
2021/12/02 02:02:49;;;;;;;0.47;0.30;;;16.60;29.10;;;;;;5141778;27;20217;-72
2021/12/02 02:05:17;;;;;;;0.68;0.38;;;16.60;29.10;;;;;;5139945;27;20209;-72
2021/12/02 02:07:54;;;;;;;0.50;0.40;;;16.60;29.10;;;;;;5141580;27;20202;-72
2021/12/02 02:10:22;;;;;;;0.68;0.45;;;16.60;29.10;;;;;;5141402;27;20226;-72
2021/12/02 02:12:49;;;;;;;0.40;0.40;;;16.60;29.10;;;;;;5141301;27;20213;-71
2021/12/02 02:15:16;;;;;;;0.40;0.30;;;16.60;29.10;;;;;;5141495;27;20213;-72
2021/12/02 02:17:49;;;;;;;0.38;0.38;;;16.60;29.00;;;;;;5141060;27;20226;-71
2021/12/02 02:20:25;;;;;;;0.30;0.30;;;16.50;29.00;;;;;;5141071;27;20234;-72
2021/12/02 02:22:53;;;;;;;0.30;0.30;;;16.50;29.00;;;;;;5141764;27;20469;-72
2021/12/02 02:25:20;;;;;;;0.40;0.40;;;16.50;29.00;;;;;;5141314;27;20230;-72
2021/12/02 02:27:47;;;;;;;0.35;0.35;;;16.50;29.00;;;;;;5141732;27;20202;-72
2021/12/02 02:30:14;;;;;;;0.40;0.40;;;16.50;29.10;;;;;;5141479;27;20592;-72
2021/12/02 02:32:41;;;;;;;0.70;0.40;;;16.50;29.00;;;;;;5140533;27;20228;-72
2021/12/02 02:35:08;;;;;;;0.40;0.35;;;16.50;29.00;;;;;;5141600;27;20229;-71
2021/12/02 02:37:38;;;;;;;0.40;0.40;;;16.40;29.00;;;;;;5140920;27;20229;-72
2021/12/02 02:40:09;;;;;;;0.50;0.30;;;16.40;29.00;;;;;;5141808;27;20471;-72
2021/12/02 02:42:36;;;;;;;0.50;0.40;;;16.40;29.00;;;;;;5141588;27;20297;-71
2021/12/02 02:45:04;;;;;;;0.88;0.43;;;16.40;29.00;;;;;;5141276;27;20224;-72
2021/12/02 02:47:31;;;;;;;0.50;0.40;;;16.40;29.00;;;;;;5141101;27;20281;-72
2021/12/02 02:49:59;;;;;;;0.57;0.32;;;16.40;29.00;;;;;;5140414;27;20786;-72
2021/12/02 02:52:26;;;;;;;0.30;0.30;;;16.40;29.00;;;;;;5140526;27;20209;-72
2021/12/02 02:54:54;;;;;;;0.40;0.40;;;16.40;29.00;;;;;;5141225;27;20202;-72
2021/12/02 02:57:25;;;;;;;0.40;0.38;;;16.30;29.00;;;;;;5139701;27;20234;-72
2021/12/02 03:00:05;;;;;;;0.45;0.35;;;16.30;29.00;;;;;;5129243;27;20217;-71
2021/12/02 03:02:39;;;;;;;0.40;0.40;;;16.30;28.90;;;;;;5140689;27;20495;-71
2021/12/02 03:05:18;;;;;;;0.93;0.47;;;16.30;29.10;;;;;;5140942;27;20211;-72
2021/12/02 03:07:51;;;;;;;0.50;0.40;;;16.30;29.00;;;;;;5140514;27;20571;-71
2021/12/02 03:10:24;;;;;;;0.82;0.50;;;16.30;29.10;;;;;;5140913;27;20207;-72
2021/12/02 03:12:59;;;;;;;0.50;0.50;;;16.20;28.90;;;;;;5140837;27;20210;-71
2021/12/02 03:18:12;;;;;;;0.45;0.45;;;16.20;29.10;;;;;;5140280;27;20233;-72
2021/12/02 03:20:39;;;;;;;0.63;0.40;;;16.20;29.00;;;;;;5140639;27;20202;-71
2021/12/02 03:23:07;;;;;;;0.40;0.32;;;16.20;28.90;;;;;;5140475;27;20214;-71
2021/12/02 03:25:36;;;;;;;0.70;0.50;;;16.20;29.10;;;;;;5139745;27;20202;-72
2021/12/02 03:28:04;;;;;;;1.02;0.43;;;16.20;28.90;;;;;;5139980;27;20210;-71
2021/12/02 03:30:32;;;;;;;1.00;0.47;;;16.20;29.10;;;;;;5139779;27;20224;-71
2021/12/02 03:32:59;;;;;;;0.40;0.40;;;16.20;29.00;;;;;;5140163;27;20206;-71
2021/12/02 03:35:26;;;;;;;0.93;0.50;;;16.20;29.10;;;;;;5139760;27;20202;-71
2021/12/02 03:37:53;;;;;;;1.10;0.43;;;16.20;29.10;;;;;;5140174;27;20229;-71
2021/12/02 03:40:20;;;;;;;0.45;0.45;;;16.20;29.00;;;;;;5140089;27;20210;-71
2021/12/02 03:42:52;;;;;;;0.40;0.40;;;16.10;29.00;;;;;;5140131;27;20202;-71
2021/12/02 03:45:22;;;;;;;0.35;0.30;;;16.10;29.10;;;;;;5140087;27;20485;-72
2021/12/02 03:47:50;;;;;;;0.43;0.43;;;16.10;28.90;;;;;;5140005;27;20611;-71
2021/12/02 03:50:17;;;;;;;0.50;0.50;;;16.10;28.90;;;;;;5140009;27;20272;-71
2021/12/02 03:52:44;;;;;;;0.50;0.45;;;16.10;29.10;;;;;;5137735;27;20199;-72
2021/12/02 03:55:11;;;;;;;0.40;0.40;;;16.10;29.00;;;;;;5139511;27;20206;-72
2021/12/02 03:57:39;;;;;;;0.52;0.40;;;16.00;29.00;;;;;;5138921;27;20246;-72
2021/12/02 04:00:09;;;;;;;0.47;0.40;;;16.10;29.00;;;;;;5139712;27;20263;-72
2021/12/02 04:02:36;;;;;;;0.50;0.38;;;16.00;29.00;;;;;;5139032;27;20203;-72
2021/12/02 04:05:03;;;;;;;1.90;0.70;;;16.00;29.00;;;;;;5139500;27;20203;-72
2021/12/02 04:07:30;;;;;;;0.90;0.43;;;16.00;28.90;;;;;;5139774;27;20198;-71
2021/12/02 04:09:58;;;;;;;0.32;0.32;;;16.00;28.90;;;;;;5139641;27;20211;-71
2021/12/02 04:12:32;;;;;;;0.40;0.30;;;16.00;28.90;;;;;;5138929;27;20318;-71
2021/12/02 04:15:02;;;;;;;0.65;0.40;;;16.00;29.00;;;;;;5139304;27;20206;-71
2021/12/02 04:17:41;;;;;;;0.55;0.30;;;16.00;29.20;;;;;;5138935;27;20319;-71
2021/12/02 04:20:12;;;;;;;0.43;0.43;;;16.00;29.10;;;;;;5138560;27;20194;-71
2021/12/02 04:22:40;;;;;;;0.35;0.30;;;16.00;29.10;;;;;;5138857;27;20195;-71
2021/12/02 04:25:09;;;;;;;0.65;0.40;;;15.90;29.10;;;;;;5139080;27;20209;-71
2021/12/02 04:27:36;;;;;;;0.40;0.40;;;15.90;29.00;;;;;;5138595;27;20198;-71
2021/12/02 04:30:04;;;;;;;0.50;0.50;;;15.90;29.00;;;;;;5138675;27;20553;-71
2021/12/02 04:32:33;;;;;;;0.45;0.40;;;15.90;29.10;;;;;;5138919;27;20213;-72
2021/12/02 04:35:00;;;;;;;0.40;0.40;;;15.90;29.00;;;;;;5138814;27;20206;-71
2021/12/02 04:37:28;;;;;;;0.40;0.30;;;15.90;28.90;;;;;;5138573;27;20236;-71
2021/12/02 04:39:55;;;;;;;0.38;0.38;;;15.80;28.90;;;;;;5138125;27;20517;-71
2021/12/02 04:42:22;;;;;;;0.95;0.55;;;15.80;29.00;;;;;;5137914;27;20203;-71
2021/12/02 04:44:50;;;;;;;0.30;0.30;;;15.80;28.90;;;;;;5137696;27;20585;-71
2021/12/02 04:47:18;;;;;;;1.02;0.45;;;15.80;29.00;;;;;;5137914;27;20201;-71
2021/12/02 04:49:46;;;;;;;0.30;0.30;;;15.80;29.00;;;;;;5138703;27;20213;-71
2021/12/02 04:52:13;;;;;;;3.60;0.50;;;15.80;28.90;;;;;;5138175;27;20203;-71
2021/12/02 04:54:41;;;;;;;0.40;0.40;;;15.80;28.90;;;;;;5137870;27;20210;-71
2021/12/02 04:57:08;;;;;;;0.40;0.30;;;15.80;29.00;;;;;;5137203;27;20244;-71
2021/12/02 04:59:35;;;;;;;0.50;0.45;;;15.70;28.90;;;;;;5138110;27;20517;-71
2021/12/02 05:02:02;;;;;;;0.50;0.50;;;15.70;29.20;;;;;;5137486;27;20202;-71
2021/12/02 05:04:29;;;;;;;0.57;0.40;;;15.70;29.00;;;;;;5138182;27;20581;-71
2021/12/02 05:06:58;;;;;;;1.45;0.50;;;15.70;28.90;;;;;;5137402;27;20202;-71
2021/12/02 05:09:25;;;;;;;0.30;0.30;;;15.70;29.00;;;;;;5137473;27;20203;-71
2021/12/02 05:11:52;;;;;;;1.05;0.50;;;15.70;29.00;;;;;;5137305;27;20524;-71
2021/12/02 05:14:20;;;;;;;0.50;0.47;;;15.70;29.10;;;;;;5138005;27;20210;-71
2021/12/02 05:16:47;;;;;;;0.40;0.40;;;15.60;28.90;;;;;;5136871;27;20199;-71
2021/12/02 05:19:14;;;;;;;0.45;0.40;;;15.70;29.00;;;;;;5137759;27;20202;-71
2021/12/02 05:21:41;;;;;;;1.33;0.60;;;15.60;28.90;;;;;;5137671;27;20202;-71
2021/12/02 05:24:10;;;;;;;0.70;0.47;;;15.60;28.90;;;;;;5136396;27;20201;-72
2021/12/02 05:26:37;;;;;;;0.40;0.40;;;15.60;29.00;;;;;;5138220;28;20266;-71
2021/12/02 05:29:04;;;;;;;0.98;0.40;;;15.60;29.00;;;;;;5138087;28;20221;-71
2021/12/02 05:31:31;;;;;;;0.93;0.40;;;15.60;28.90;;;;;;5137456;28;20217;-72
2021/12/02 05:33:58;;;;;;;0.52;0.40;;;15.60;29.00;;;;;;5136883;28;20210;-71
2021/12/02 05:36:26;;;;;;;0.50;0.50;;;15.60;28.90;;;;;;5136878;28;20210;-71
2021/12/02 05:38:53;;;;;;;0.30;0.30;;;15.60;29.00;;;;;;5136492;28;20226;-71
2021/12/02 05:41:21;;;;;;;1.30;0.50;;;15.50;28.90;;;;;;5137326;28;20217;-71
2021/12/02 05:43:48;;;;;;;0.60;0.40;;;15.50;29.10;;;;;;5136221;28;20739;-71
2021/12/02 05:46:15;;;;;;;0.40;0.38;;;15.60;29.00;;;;;;5136452;28;20202;-71
2021/12/02 05:48:42;;;;;;;0.60;0.50;;;15.50;29.00;;;;;;5136526;28;20198;-71
2021/12/02 05:51:10;;;;;;;0.40;0.40;;;15.50;29.10;;;;;;5136509;28;20202;-71
2021/12/02 05:53:37;;;;;;;0.60;0.60;;;15.50;29.00;;;;;;5136122;28;20214;-71
2021/12/02 05:56:04;;;;;;;0.65;0.45;;;15.50;29.00;;;;;;5136374;28;20206;-71
2021/12/02 05:58:33;;;;;;;0.43;0.40;;;15.50;29.00;;;;;;5135572;27;20230;-71
2021/12/02 06:01:00;;;;;;;0.60;0.50;;;15.40;29.00;;;;;;5135411;28;20484;-72
2021/12/02 06:03:27;;;;;;;0.50;0.50;;;15.40;29.00;;;;;;5135522;28;20494;-71
2021/12/02 06:05:54;;;;;;;0.90;0.47;;;15.40;29.00;;;;;;5136088;28;20232;-71
2021/12/02 06:08:21;;;;;;;0.70;0.40;;;15.50;29.00;;;;;;5135624;28;20206;-71
2021/12/02 06:10:48;;;;;;;0.40;0.40;;;15.40;29.10;;;;;;5124475;28;20207;-71
2021/12/02 06:13:16;;;;;;;0.52;0.50;;;15.40;29.10;;;;;;5131094;28;20608;-71
2021/12/02 06:15:45;;;;;;;0.40;0.40;;;15.40;29.00;;;;;;5135855;28;20315;-71
2021/12/02 06:18:12;;;;;;;0.47;0.47;;;15.40;29.00;;;;;;5135553;28;20241;-71
2021/12/02 06:20:39;;;;;;;0.45;0.40;;;15.40;29.10;;;;;;5135732;28;20523;-71
2021/12/02 06:23:06;;;;;;;0.90;0.60;;;15.40;29.00;;;;;;5135022;28;20210;-71
2021/12/02 06:25:45;;;;;;;0.95;0.50;;;15.40;29.10;;;;;;5135401;28;20229;-71
2021/12/02 06:28:12;;;;;;;0.68;0.40;;;15.30;29.00;;;;;;5134521;28;20231;-71
2021/12/02 06:30:40;;;;;;;1.23;0.50;;;15.30;29.00;;;;;;5132578;28;20203;-72
2021/12/02 06:33:09;;;;;;;0.60;0.50;;;15.30;29.00;;;;;;5133804;28;20516;-72
2021/12/02 06:35:36;;;;;;;0.40;0.40;;;15.30;29.00;;;;;;5134731;27;20213;-71
2021/12/02 06:38:04;;;;;;;0.60;0.40;;;15.30;29.00;;;;;;5126228;27;20233;-71
2021/12/02 06:40:31;;;;;;;2.00;0.50;;;15.30;29.00;;;;;;5115605;28;20202;-71
2021/12/02 06:42:59;;;;;;;0.55;0.40;;;15.30;29.00;;;;;;5115681;28;20203;-71
2021/12/02 06:45:26;;;;;;;1.15;0.40;;;15.30;29.10;;;;;;5115701;28;20613;-73
2021/12/02 06:47:58;;;;;;;0.70;0.50;;;15.20;29.00;;;;;;5116714;28;20214;-71
2021/12/02 06:50:27;;;;;;;0.60;0.60;;;15.30;29.10;;;;;;5115950;28;20203;-72
2021/12/02 06:52:55;;;;;;;1.05;0.65;;;15.20;29.10;;;;;;5114386;28;20199;-74
2021/12/02 06:55:23;;;;;;;1.75;0.57;;;15.20;29.10;;;;;;5116133;28;20214;-72
2021/12/02 06:57:50;;;;;;;1.25;0.50;;;15.20;29.10;;;;;;5116167;28;20257;-72
2021/12/02 07:00:20;;;;;;;1.27;0.47;;;15.20;29.10;;;;;;5117157;28;20203;-71
2021/12/02 07:02:47;;;;;;;0.70;0.50;;;15.20;29.20;;;;;;5116054;28;20237;-71
2021/12/02 07:05:17;;;;;;;1.80;0.60;;;15.20;29.10;;;;;;5116649;28;20558;-71
2021/12/02 07:07:46;;;;;;;1.08;0.50;;;15.20;29.10;;;;;;5115440;28;20202;-71
2021/12/02 07:10:16;;;;;;;0.93;0.50;;;15.10;29.10;;;;;;5116928;28;20203;-71
2021/12/02 07:12:46;;;;;;;0.98;0.40;;;15.20;29.20;;;;;;5117663;28;20222;-72
2021/12/02 07:15:17;;;;;;;0.93;0.47;;;15.20;29.20;;;;;;5115468;28;20227;-71
2021/12/02 07:17:45;;;;;;;0.70;0.47;;;15.20;29.20;;;;;;5116763;28;20232;-72
2021/12/02 07:20:13;;;;;;;1.58;0.50;;;15.20;29.20;;;;;;5116087;28;20305;-71
2021/12/02 07:22:40;;;;;;;0.75;0.50;;;15.20;29.10;;;;;;5116517;28;20266;-71
2021/12/02 07:25:10;;;;;;;1.70;0.70;;;15.10;29.10;;;;;;5115979;28;20199;-71
2021/12/02 07:27:37;;;;;;;1.38;0.50;;;15.10;29.70;;;;;;5116456;28;20284;-71
2021/12/02 07:30:05;;;;;;;0.40;0.40;;;15.10;29.10;;;;;;5117315;28;20214;-71
2021/12/02 07:32:36;;;;;;;1.70;0.60;;;15.10;29.10;;;;;;5116065;28;20257;-71
2021/12/02 07:35:09;;;;;;;0.60;0.60;;;15.10;29.10;;;;;;5115613;28;20264;-71
2021/12/02 07:37:37;;;;;;;1.30;0.35;;;15.10;29.10;;;;;;5115258;28;20580;-71
2021/12/02 07:40:05;;;;;;;1.15;0.50;;;15.10;29.10;;;;;;5115800;28;20523;-72
2021/12/02 07:42:34;;;;;;;0.95;0.40;;;15.10;29.10;;;;;;5115706;28;20230;-71
2021/12/02 07:45:01;;;;;;;0.65;0.60;;;15.10;29.20;;;;;;5115352;28;20218;-72
2021/12/02 07:47:28;;;;;;;0.82;0.50;;;15.00;29.10;;;;;;5115881;28;20234;-71
2021/12/02 07:49:55;;;;;;;0.88;0.60;;;15.00;29.20;;;;;;5116129;28;20203;-71
2021/12/02 07:52:26;;;;;;;0.50;0.50;;;15.00;29.20;;;;;;5116182;28;20213;-71
2021/12/02 07:54:56;;;;;;;1.02;0.52;;;15.00;29.10;;;;;;5116187;28;20202;-71
2021/12/02 07:57:23;;;;;;;0.50;0.50;;;15.00;29.20;;;;;;5114656;28;20262;-71
2021/12/02 07:59:53;;;;;;;1.05;0.50;;;15.00;29.10;;;;;;5114943;28;20245;-71
2021/12/02 08:02:22;;;;;;;0.65;0.60;;;15.00;29.20;;;;;;5114886;28;20206;-71
2021/12/02 08:04:49;;;;;;;0.77;0.60;;;15.00;29.20;;;;;;5106572;28;20209;-71
2021/12/02 08:07:17;;;;;;;1.20;0.55;;;15.00;29.10;;;;;;5115089;28;20222;-71
2021/12/02 08:09:44;;;;;;;0.50;0.50;;;15.00;29.20;;;;;;5115677;28;20593;-71
2021/12/02 08:12:11;;;;;;;0.60;0.50;;;15.00;29.20;;;;;;5114632;28;20489;-71
2021/12/02 08:14:38;;;;;;;0.85;0.73;;;15.00;29.20;;;;;;5114495;28;20631;-71
2021/12/02 08:17:07;;;;;;;0.80;0.60;;;15.00;29.30;;;;;;5115692;28;20219;-71
2021/12/02 08:19:34;;;;;;;0.68;0.63;;;14.90;29.10;;;;;;5115242;28;20319;-71
2021/12/02 08:22:01;;;;;;;0.98;0.73;;;14.90;29.10;;;;;;5115151;28;20207;-72
2021/12/02 08:24:28;;;;;;;0.93;0.60;;;14.90;29.20;;;;;;5115023;28;20202;-72
2021/12/02 08:26:56;;;;;;;0.50;0.50;;;14.90;29.20;;;;;;5114805;28;20210;-71
2021/12/02 08:29:23;;;;;;;1.40;0.65;;;14.90;29.20;;;;;;5114714;28;20205;-71
2021/12/02 08:31:50;;;;;;;0.80;0.80;;;14.90;29.20;;;;;;5113943;28;20203;-71
2021/12/02 08:34:19;;;;;;;0.50;0.50;;;14.90;29.20;;;;;;5114059;28;20214;-71
2021/12/02 08:36:50;;;;;;;0.60;0.60;;;14.90;29.20;;;;;;5113448;28;20195;-72
2021/12/02 08:39:21;;;;;;;1.10;0.60;;;14.90;29.20;;;;;;5114183;28;20334;-71
2021/12/02 08:41:50;;;;;;;0.60;0.60;;;14.90;29.20;;;;;;5105852;28;20474;-71
2021/12/02 08:44:18;;;;;;;1.48;0.60;;;14.90;29.20;;;;;;5114263;28;20207;-71
2021/12/02 08:46:49;;;;;;;0.93;0.55;;;14.80;29.20;;;;;;5110811;27;20207;-71
2021/12/02 08:49:23;;;;;;;1.33;0.60;;;14.80;29.30;;;;;;5116206;28;20259;-72
2021/12/02 08:51:51;;;;;;;0.80;0.70;;;14.80;29.20;;;;;;5114542;28;20203;-71
2021/12/02 08:54:18;;;;;;;0.95;0.70;;;14.80;29.20;;;;;;5113006;28;20496;-71
2021/12/02 08:56:46;;;;;;;1.40;0.68;;;14.80;29.20;;;;;;5113742;28;20203;-71
2021/12/02 08:59:13;;;;;;;1.95;0.68;;;14.80;29.30;;;;;;5131424;27;20617;-71
2021/12/02 09:01:41;;;;;;;0.50;0.50;;;14.80;29.20;;;;;;5133811;27;20195;-72
2021/12/02 09:04:08;;;;;;;0.73;0.60;;;14.80;29.30;;;;;;5134318;27;20213;-72
2021/12/02 09:06:36;;;;;;;0.80;0.68;;;14.80;29.30;;;;;;5134036;27;20233;-71
2021/12/02 09:09:04;;;;;;;1.58;0.77;;;14.80;29.20;;;;;;5135298;27;20194;-71
2021/12/02 09:11:33;;;;;;;0.65;0.60;;;14.80;29.30;;;;;;5134692;27;20202;-71
2021/12/02 09:14:02;;;;;;;0.73;0.60;;;14.80;29.30;;;;;;5134168;27;20569;-71
2021/12/02 09:16:30;;;;;;;0.95;0.75;;;14.70;29.30;;;;;;5133416;27;20210;-71
2021/12/02 09:18:57;;;;;;;0.77;0.70;;;14.70;29.30;;;;;;5134100;27;20666;-72
2021/12/02 09:21:26;;;;;;;1.15;0.70;;;14.80;29.40;;;;;;5133667;27;20202;-72
2021/12/02 09:23:54;;;;;;;0.65;0.65;;;14.70;29.30;;;;;;5132253;28;20206;-71
2021/12/02 09:26:22;;;;;;;0.68;0.68;;;14.70;29.30;;;;;;5133865;28;20209;-71
2021/12/02 09:28:53;;;;;;;0.80;0.80;;;14.80;29.30;;;;;;5135311;28;20206;-71
2021/12/02 09:31:22;;;;;;;0.60;0.60;;;14.80;29.30;;;;;;5134035;28;20229;-71
2021/12/02 09:33:49;;;;;;;1.15;0.63;;;14.70;29.30;;;;;;5134437;28;20209;-72
2021/12/02 09:36:16;;;;;;;1.25;0.63;;;14.70;29.30;;;;;;5135089;28;20205;-71
2021/12/02 09:38:44;;;;;;;0.88;0.50;;;14.70;29.30;;;;;;5134439;28;20268;-72
2021/12/02 09:41:12;;;;;;;0.88;0.70;;;14.70;29.30;;;;;;5134506;28;20577;-71
2021/12/02 09:43:40;;;;;;;0.73;0.73;;;14.70;29.30;;;;;;5134813;28;20210;-71
2021/12/02 09:46:08;;;;;;;0.63;0.60;;;14.70;29.30;;;;;;5135015;28;20597;-71
2021/12/02 09:48:36;;;;;;;0.85;0.70;;;14.70;29.40;;;;;;5133561;28;20209;-72
2021/12/02 09:51:08;;;;;;;0.70;0.63;;;14.70;29.30;;;;;;5132286;28;20612;-71
2021/12/02 09:53:39;;;;;;;1.40;0.90;;;14.60;29.30;;;;;;5134598;27;20589;-71
2021/12/02 09:56:16;;;;;;;0.90;0.70;;;14.60;29.30;;;;;;5133020;28;20210;-72
2021/12/02 09:58:45;;;;;;;1.10;0.70;;;14.60;29.30;;;;;;5132991;27;20222;-71
2021/12/02 10:01:14;;;;;;;0.60;0.60;;;14.60;29.30;;;;;;5133059;27;20289;-71
2021/12/02 10:03:45;;;;;;;1.02;0.70;;;14.60;29.30;;;;;;5134096;27;20210;-71
2021/12/02 10:06:18;;;;;;;0.82;0.60;;;14.60;29.30;;;;;;5134991;27;20206;-72
2021/12/02 10:08:52;;;;;;;0.80;0.65;;;14.60;29.40;;;;;;5134566;27;20208;-71
2021/12/02 10:11:30;;;;;;;0.80;0.80;;;14.60;29.40;;;;;;5137697;27;20304;-71
2021/12/02 10:14:14;;;;;;;0.88;0.70;;;14.60;29.40;;;;;;5136541;27;20202;-71
2021/12/02 10:16:44;;;;;;;1.58;0.70;;;14.60;29.40;;;;;;5136308;27;20203;-71
2021/12/02 10:19:13;;;;;;;0.70;0.60;;;14.60;29.40;;;;;;5136245;27;20265;-70
2021/12/02 10:21:43;;;;;;;0.73;0.70;;;14.60;29.40;;;;;;5136028;27;20202;-71
2021/12/02 10:24:12;;;;;;;0.77;0.50;;;14.60;29.40;;;;;;5135938;27;20305;-71
2021/12/02 10:26:42;;;;;;;1.00;0.70;;;14.60;29.40;;;;;;5133292;27;20480;-71
2021/12/02 10:29:16;;;;;;;0.80;0.55;;;14.60;29.40;;;;;;5134774;27;20449;-71
2021/12/02 10:31:47;;;;;;;1.27;0.65;;;14.60;29.40;;;;;;5137233;27;20554;-71
2021/12/02 10:34:15;;;;;;;0.82;0.60;;;14.60;29.40;;;;;;5136739;27;20259;-70
2021/12/02 10:36:44;;;;;;;1.90;0.90;;;14.60;29.40;;;;;;5137341;27;20206;-70
2021/12/02 10:39:16;;;;;;;2.85;0.90;;;14.60;29.70;;;;;;5137366;27;20222;-70
2021/12/02 10:41:45;;;;;;;2.78;0.82;;;14.60;29.60;;;;;;5137818;27;20202;-70
2021/12/02 10:44:23;;;;;;;3.40;0.98;;;14.50;29.50;;;;;;5138621;27;20294;-70
2021/12/02 10:47:01;;;;;;;2.58;0.98;;;14.50;29.50;;;;;;5137705;27;20742;-70
2021/12/02 10:49:30;;;;;;;1.95;0.90;;;14.50;29.50;;;;;;5137213;27;20224;-70
2021/12/02 10:52:00;;;;;;;4.07;0.85;;;14.50;29.50;;;;;;5135887;27;20485;-70
2021/12/02 10:54:29;;;;;;;3.10;0.93;;;14.50;29.50;;;;;;5136415;27;20570;-70
2021/12/02 10:56:59;;;;;;;1.83;1.10;;;14.50;29.40;;;;;;5135748;27;20224;-70
2021/12/02 10:59:34;;;;;;;1.75;0.80;;;14.50;29.50;;;;;;5137128;27;20215;-70
2021/12/02 11:02:05;;;;;;;1.30;0.88;;;14.50;29.50;;;;;;5136113;27;20202;-70
2021/12/02 11:04:38;;;;;;;1.75;1.00;;;14.50;29.50;;;;;;5136828;27;20214;-70
2021/12/02 11:07:10;;;;;;;2.13;0.90;;;14.50;29.50;;;;;;5135526;27;20423;-70
2021/12/02 11:09:38;;;;;;;2.47;0.85;;;14.50;29.50;;;;;;5136164;27;20233;-70
2021/12/02 11:12:08;;;;;;;2.15;0.90;;;14.50;29.50;;;;;;5135828;27;20206;-70
2021/12/02 11:14:37;;;;;;;1.70;0.90;;;14.50;29.50;;;;;;5136610;27;20198;-70
2021/12/02 11:17:08;;;;;;;3.08;1.10;;;14.40;29.40;;;;;;5136639;27;20203;-70
2021/12/02 11:19:35;;;;;;;2.83;1.00;;;14.40;29.50;;;;;;5136796;27;20222;-70
2021/12/02 11:22:08;;;;;;;2.35;0.95;;;14.40;29.40;;;;;;5136012;27;20573;-70
2021/12/02 11:24:35;;;;;;;1.30;1.10;;;14.40;29.50;;;;;;5135852;27;20206;-70
2021/12/02 11:27:15;;;;;;;2.58;1.05;;;14.40;29.40;;;;;;5135536;27;20206;-70
2021/12/02 11:29:56;;;;;;;1.50;1.05;;;14.40;29.50;;;;;;5135656;27;20199;-70
2021/12/02 11:32:25;;;;;;;2.28;0.90;;;14.40;29.40;;;;;;5135646;27;20484;-70
2021/12/02 11:35:01;;;;;;;2.00;1.02;;;14.40;29.40;;;;;;5134516;27;20702;-70
2021/12/02 11:37:28;;;;;;;2.08;0.90;;;14.40;29.50;;;;;;5134720;27;20198;-70
2021/12/02 11:39:58;;;;;;;1.13;0.90;;;14.40;29.50;;;;;;5135272;27;20616;-70
2021/12/02 11:42:26;;;;;;;1.60;1.00;;;14.40;29.50;;;;;;5137120;27;20467;-70
2021/12/02 11:44:54;;;;;;;1.35;0.93;;;14.40;29.50;;;;;;5137330;27;20202;-70
2021/12/02 11:47:21;;;;;;;1.45;0.98;;;14.40;29.50;;;;;;5136948;27;20213;-70
2021/12/02 11:49:48;;;;;;;1.90;1.00;;;14.40;29.50;;;;;;5134988;27;20226;-70
2021/12/02 11:52:17;;;;;;;1.92;1.13;;;14.40;29.50;;;;;;5135089;27;20221;-70
2021/12/02 11:54:44;;;;;;;2.20;1.20;;;14.40;29.50;;;;;;5136049;27;20206;-70
2021/12/02 11:57:11;;;;;;;2.40;1.30;;;14.40;29.50;;;;;;5133953;27;20208;-70
2021/12/02 11:59:38;;;;;;;1.40;0.95;;;14.30;29.40;;;;;;5135072;27;20300;-70
2021/12/02 12:02:07;;;;;;;1.25;1.00;;;14.30;29.50;;;;;;5134604;27;20205;-70
2021/12/02 12:04:38;;;;;;;2.80;1.15;;;14.30;29.40;;;;;;5132952;27;20623;-70
2021/12/02 12:07:13;;;;;;;1.00;0.80;;;14.30;29.40;;;;;;5131640;27;20570;-70
2021/12/02 12:09:41;;;;;;;2.70;0.98;;;14.30;29.50;;;;;;5133324;27;20217;-70
2021/12/02 12:12:10;;;;;;;0.98;0.80;;;14.30;29.50;;;;;;5135191;27;20213;-70
2021/12/02 12:14:41;;;;;;;1.65;0.82;;;14.30;29.50;;;;;;5134758;27;20207;-70
2021/12/02 12:17:11;;;;;;;2.33;0.80;;;14.30;29.50;;;;;;5132887;27;20206;-70
2021/12/02 12:19:43;;;;;;;1.65;0.90;;;14.30;29.50;;;;;;5133087;27;20478;-70
2021/12/02 12:22:13;;;;;;;1.98;0.90;;;14.30;29.50;;;;;;5133205;27;20229;-70
2021/12/02 12:24:42;;;;;;;2.03;1.10;;;14.30;29.50;;;;;;5134719;27;20202;-70
2021/12/02 12:27:16;;;;;;;1.83;0.95;;;14.30;29.50;;;;;;5132595;27;20442;-70
2021/12/02 12:29:44;;;;;;;1.92;1.00;;;14.30;29.50;;;;;;5132385;27;20449;-70
2021/12/02 12:35:33;;;;;;;1.38;0.90;;;14.30;29.50;;;;;;5121700;27;20336;-70
2021/12/02 12:38:05;;;;;;;2.00;0.95;;;14.30;29.50;;;;;;5132792;27;20266;-70
2021/12/02 12:40:42;;;;;;;1.52;0.90;;;14.20;29.40;;;;;;5133400;27;20459;-70
2021/12/02 12:43:22;;;;;;;1.40;0.70;;;14.20;29.50;;;;;;5132420;27;20201;-70
2021/12/02 12:45:49;;;;;;;1.13;0.80;;;14.20;29.50;;;;;;5133734;27;20213;-70
2021/12/02 12:48:32;;;;;;;1.30;0.90;;;14.20;29.50;;;;;;5131950;27;20202;-70
2021/12/02 12:51:19;;;;;;;1.50;1.00;;;14.20;29.50;;;;;;5130776;27;20253;-70
2021/12/02 12:53:50;;;;;;;1.00;0.65;;;14.20;29.50;;;;;;5134745;27;20615;-70
2021/12/02 12:56:19;;;;;;;0.88;0.80;;;14.20;29.50;;;;;;5134012;27;20198;-70
2021/12/02 12:59:17;;;;;;;1.55;1.00;;;14.20;29.50;;;;;;5132743;27;20294;-71
2021/12/02 13:02:05;;;;;;;1.27;0.80;;;14.20;29.50;;;;;;5048292;28;20196;-70
2021/12/02 13:04:51;;;;;;;1.20;0.82;;;14.20;29.50;;;;;;5126134;27;20292;-70
2021/12/02 13:07:19;;;;;;;1.27;0.90;;;14.20;29.50;;;;;;5132591;27;20253;-70
2021/12/02 13:09:57;;;;;;;1.42;0.93;;;14.20;29.50;;;;;;5132558;27;20293;-70
2021/12/02 13:12:51;;;;;;;1.02;0.93;;;14.20;29.50;;;;;;5131757;27;20197;-70